Time;durP1;ratioP1;P1;durP2;ratioP2;P2;SDS_P1;SDS_P2;PMS_P1;PMS_P2;Temp;Humidity;BMP_temperature;BMP_pressure;BME280_temperature;BME280_humidity;BME280_pressure;Samples;Min_cycle;Max_cycle;Signal;HPM_P1;HPM_P2
2023/09/12 00:01:56;;;;;;;375.63;112.07;;;;;;;;;;4989347;28;20036;-59
2023/09/12 00:04:22;;;;;;;407.97;114.27;;;;;;;;;;4990992;28;20029;-59
2023/09/12 00:06:47;;;;;;;453.33;116.07;;;;;;;;;;4994227;28;20646;-59
2023/09/12 00:09:12;;;;;;;333.23;102.70;;;;;;;;;;4994487;28;20276;-58
2023/09/12 00:11:37;;;;;;;472.03;114.70;;;;;;;;;;4991565;28;20288;-59
2023/09/12 00:14:03;;;;;;;389.30;106.33;;;;;;;;;;4993590;28;20270;-59
2023/09/12 00:16:28;;;;;;;394.90;109.70;;;;;;;;;;4992877;28;20276;-58
2023/09/12 00:18:53;;;;;;;400.53;108.87;;;;;;;;;;4990579;28;20099;-58
2023/09/12 00:21:18;;;;;;;402.80;112.18;;;;;;;;;;4995067;28;20286;-58
2023/09/12 00:23:44;;;;;;;524.58;121.65;;;;;;;;;;4996258;28;20282;-58
2023/09/12 00:26:09;;;;;;;377.07;118.07;;;;;;;;;;4998128;28;20053;-59
2023/09/12 00:28:34;;;;;;;421.90;119.63;;;;;;;;;;4995063;28;20496;-58
2023/09/12 00:30:59;;;;;;;424.27;120.30;;;;;;;;;;4993236;28;20160;-59
2023/09/12 00:33:25;;;;;;;401.00;121.70;;;;;;;;;;4996492;28;20147;-58
2023/09/12 00:35:50;;;;;;;522.30;129.53;;;;;;;;;;4992250;28;20075;-58
2023/09/12 00:38:15;;;;;;;418.03;120.93;;;;;;;;;;4999344;28;20260;-58
2023/09/12 00:40:40;;;;;;;473.77;104.73;;;;;;;;;;4996045;28;20939;-58
2023/09/12 00:43:06;;;;;;;393.27;106.17;;;;;;;;;;4998660;28;20688;-58
2023/09/12 00:45:31;;;;;;;369.80;107.22;;;;;;;;;;4996350;28;20487;-59
2023/09/12 00:47:58;;;;;;;383.95;110.50;;;;;;;;;;4993079;28;20017;-59
2023/09/12 00:50:25;;;;;;;383.27;108.40;;;;;;;;;;4995720;28;20014;-59
2023/09/12 00:52:50;;;;;;;496.10;115.63;;;;;;;;;;4996588;28;20026;-59
2023/09/12 00:55:16;;;;;;;437.45;124.43;;;;;;;;;;4995610;28;20425;-58
2023/09/12 00:57:41;;;;;;;460.90;128.35;;;;;;;;;;4997536;28;20067;-58
2023/09/12 01:00:12;;;;;;;370.60;105.75;;;;;;;;;;4996819;28;20440;-59
2023/09/12 01:02:37;;;;;;;425.73;111.25;;;;;;;;;;4997588;28;20065;-59
2023/09/12 01:05:04;;;;;;;400.95;114.35;;;;;;;;;;4997093;28;20053;-58
2023/09/12 01:07:29;;;;;;;349.05;109.30;;;;;;;;;;4993451;28;20087;-59
2023/09/12 01:09:55;;;;;;;550.53;123.97;;;;;;;;;;4998522;28;20022;-57
2023/09/12 01:12:20;;;;;;;427.70;124.63;;;;;;;;;;4995793;28;20226;-57
2023/09/12 01:14:45;;;;;;;551.72;129.95;;;;;;;;;;4996705;28;20641;-59
2023/09/12 01:17:11;;;;;;;395.37;123.63;;;;;;;;;;4999334;28;20068;-58
2023/09/12 01:19:36;;;;;;;443.73;127.72;;;;;;;;;;4996607;28;20350;-57
2023/09/12 01:22:30;;;;;;;411.63;125.07;;;;;;;;;;4993700;28;20507;-58
2023/09/12 01:24:59;;;;;;;571.53;131.40;;;;;;;;;;4987797;28;20300;-58
2023/09/12 01:27:28;;;;;;;423.88;125.93;;;;;;;;;;4998947;28;20037;-57
2023/09/12 01:29:56;;;;;;;473.42;128.45;;;;;;;;;;4995688;28;20095;-58
2023/09/12 01:32:21;;;;;;;434.02;125.78;;;;;;;;;;4993082;28;20034;-58
2023/09/12 01:34:47;;;;;;;548.83;132.77;;;;;;;;;;4993720;28;20033;-59
2023/09/12 01:37:12;;;;;;;398.05;127.32;;;;;;;;;;4997766;28;20339;-58
2023/09/12 01:39:37;;;;;;;431.98;125.57;;;;;;;;;;4999569;28;20022;-59
2023/09/12 01:42:03;;;;;;;476.33;129.40;;;;;;;;;;4991446;28;20026;-59
2023/09/12 01:44:31;;;;;;;439.00;127.50;;;;;;;;;;4996249;28;20269;-58
2023/09/12 01:46:57;;;;;;;564.83;135.27;;;;;;;;;;4994480;28;20033;-58
2023/09/12 01:49:24;;;;;;;450.27;131.73;;;;;;;;;;4999076;28;20025;-58
2023/09/12 01:51:49;;;;;;;511.10;135.55;;;;;;;;;;4994209;28;20037;-58
2023/09/12 01:54:14;;;;;;;406.38;132.00;;;;;;;;;;4994891;28;20018;-60
2023/09/12 01:56:41;;;;;;;437.63;132.60;;;;;;;;;;4993311;28;20104;-59
2023/09/12 01:59:06;;;;;;;444.92;134.75;;;;;;;;;;4994021;28;20356;-57
2023/09/12 02:01:32;;;;;;;431.42;134.52;;;;;;;;;;4998000;28;20603;-59
2023/09/12 02:03:57;;;;;;;582.37;141.13;;;;;;;;;;4993403;28;20041;-57
2023/09/12 02:06:23;;;;;;;447.25;135.57;;;;;;;;;;4996113;28;20800;-58
2023/09/12 02:08:48;;;;;;;527.65;138.93;;;;;;;;;;4996481;28;20034;-57
2023/09/12 02:11:13;;;;;;;386.83;133.43;;;;;;;;;;4995559;28;20045;-57
2023/09/12 02:13:39;;;;;;;452.80;139.05;;;;;;;;;;4992943;28;20260;-58
2023/09/12 02:16:04;;;;;;;452.97;139.27;;;;;;;;;;4995724;28;20026;-57
2023/09/12 02:18:29;;;;;;;449.43;136.17;;;;;;;;;;4993064;28;20260;-57
2023/09/12 02:20:54;;;;;;;571.10;143.93;;;;;;;;;;4992119;28;20380;-59
2023/09/12 02:23:20;;;;;;;465.83;137.90;;;;;;;;;;4992207;28;20631;-57
2023/09/12 02:25:45;;;;;;;445.63;137.10;;;;;;;;;;4992348;28;20821;-58
2023/09/12 02:28:10;;;;;;;426.63;137.67;;;;;;;;;;4991981;28;20296;-58
2023/09/12 02:30:38;;;;;;;403.17;134.53;;;;;;;;;;4987788;28;20268;-57
2023/09/12 02:33:04;;;;;;;435.02;137.32;;;;;;;;;;4991307;28;20272;-57
2023/09/12 02:35:29;;;;;;;432.77;138.60;;;;;;;;;;4995723;28;20448;-59
2023/09/12 02:37:54;;;;;;;559.90;141.37;;;;;;;;;;4991941;28;20024;-60
2023/09/12 02:40:19;;;;;;;444.27;137.90;;;;;;;;;;4994358;28;20351;-59
2023/09/12 02:42:45;;;;;;;442.20;138.23;;;;;;;;;;4994610;28;20428;-58
2023/09/12 02:45:10;;;;;;;383.95;118.93;;;;;;;;;;4999107;28;20100;-57
2023/09/12 02:47:35;;;;;;;435.75;121.65;;;;;;;;;;4998822;28;20025;-57
2023/09/12 02:50:00;;;;;;;577.77;133.00;;;;;;;;;;4996508;28;20021;-60
2023/09/12 02:52:26;;;;;;;431.70;127.50;;;;;;;;;;4998113;28;20810;-59
2023/09/12 02:54:51;;;;;;;531.70;133.43;;;;;;;;;;4997916;28;20887;-57
2023/09/12 02:57:16;;;;;;;415.17;117.67;;;;;;;;;;4996775;28;20025;-57
2023/09/12 02:59:41;;;;;;;390.50;120.30;;;;;;;;;;4995542;28;20255;-59
2023/09/12 03:02:07;;;;;;;377.67;120.20;;;;;;;;;;4996200;28;20053;-59
2023/09/12 03:04:33;;;;;;;417.33;126.80;;;;;;;;;;4995175;28;20280;-58
2023/09/12 03:06:58;;;;;;;549.92;130.13;;;;;;;;;;4991255;28;20280;-59
2023/09/12 03:09:24;;;;;;;411.15;125.97;;;;;;;;;;5001711;28;20018;-58
2023/09/12 03:11:49;;;;;;;478.88;130.10;;;;;;;;;;4994386;28;20145;-58
2023/09/12 03:14:14;;;;;;;400.13;125.93;;;;;;;;;;4997352;28;20014;-57
2023/09/12 03:16:40;;;;;;;406.23;128.87;;;;;;;;;;4999054;28;20109;-57
2023/09/12 03:19:05;;;;;;;389.77;127.00;;;;;;;;;;4994245;28;20340;-58
2023/09/12 03:21:30;;;;;;;412.08;126.40;;;;;;;;;;4993391;28;20065;-58
2023/09/12 03:23:55;;;;;;;531.63;117.13;;;;;;;;;;4989458;28;20015;-58
2023/09/12 03:26:21;;;;;;;374.77;113.75;;;;;;;;;;4991399;28;20379;-57
2023/09/12 03:28:48;;;;;;;378.07;114.17;;;;;;;;;;4991202;28;20026;-57
2023/09/12 03:31:16;;;;;;;359.90;104.75;;;;;;;;;;4992613;28;21240;-59
2023/09/12 03:33:42;;;;;;;366.65;95.88;;;;;;;;;;4995355;28;20302;-60
2023/09/12 03:36:08;;;;;;;335.08;93.80;;;;;;;;;;4991678;28;20157;-59
2023/09/12 03:38:34;;;;;;;340.83;93.78;;;;;;;;;;4993935;28;20439;-57
2023/09/12 03:40:59;;;;;;;515.03;106.10;;;;;;;;;;4993067;28;20323;-57
2023/09/12 03:43:24;;;;;;;356.95;95.10;;;;;;;;;;4990604;28;20021;-59
2023/09/12 03:45:50;;;;;;;432.20;94.95;;;;;;;;;;4993994;28;20030;-59
2023/09/12 03:48:15;;;;;;;337.08;94.38;;;;;;;;;;4993832;28;20433;-58
2023/09/12 03:50:40;;;;;;;340.02;87.35;;;;;;;;;;4991122;28;20038;-59
2023/09/12 03:53:06;;;;;;;360.08;91.38;;;;;;;;;;4994291;28;20018;-57
2023/09/12 03:55:31;;;;;;;317.17;91.13;;;;;;;;;;4996430;28;20471;-58
2023/09/12 03:57:56;;;;;;;414.80;97.47;;;;;;;;;;4994606;28;20257;-59
2023/09/12 04:00:22;;;;;;;356.20;89.23;;;;;;;;;;4996223;28;20709;-56
2023/09/12 04:02:47;;;;;;;318.40;87.50;;;;;;;;;;4994441;28;20776;-57
2023/09/12 04:05:13;;;;;;;309.88;87.35;;;;;;;;;;4995597;28;20375;-58
2023/09/12 04:07:39;;;;;;;364.92;86.93;;;;;;;;;;5002091;28;20753;-57
2023/09/12 04:10:04;;;;;;;468.37;93.30;;;;;;;;;;4997397;28;20032;-57
2023/09/12 04:12:29;;;;;;;367.30;91.18;;;;;;;;;;4998326;28;20783;-59
2023/09/12 04:14:55;;;;;;;435.43;90.87;;;;;;;;;;4997544;28;20410;-58
2023/09/12 04:17:20;;;;;;;349.73;94.00;;;;;;;;;;4998816;28;20041;-58
2023/09/12 04:19:45;;;;;;;364.17;98.17;;;;;;;;;;4999828;28;20029;-57
2023/09/12 04:22:10;;;;;;;315.55;98.13;;;;;;;;;;4996447;28;20281;-59
2023/09/12 04:24:36;;;;;;;367.70;98.28;;;;;;;;;;4995931;28;20026;-58
2023/09/12 04:27:01;;;;;;;455.00;105.15;;;;;;;;;;4997741;28;20064;-60
2023/09/12 04:29:27;;;;;;;356.83;100.33;;;;;;;;;;4995931;28;20037;-58
2023/09/12 04:31:58;;;;;;;392.85;105.07;;;;;;;;;;4996845;28;20345;-60
2023/09/12 04:34:24;;;;;;;381.53;104.63;;;;;;;;;;4996035;28;20172;-59
2023/09/12 04:36:49;;;;;;;357.58;104.40;;;;;;;;;;4995585;28;20285;-58
2023/09/12 04:39:14;;;;;;;344.38;106.07;;;;;;;;;;4995161;28;20022;-58
2023/09/12 04:41:39;;;;;;;338.30;88.50;;;;;;;;;;4995584;28;20065;-58
2023/09/12 04:44:05;;;;;;;472.10;95.65;;;;;;;;;;4996064;28;20045;-59
2023/09/12 04:46:30;;;;;;;347.87;87.53;;;;;;;;;;4995722;28;20046;-59
2023/09/12 04:48:55;;;;;;;393.05;92.10;;;;;;;;;;4996509;28;20348;-60
2023/09/12 04:51:20;;;;;;;376.37;93.27;;;;;;;;;;4994255;28;20062;-60
2023/09/12 04:53:51;;;;;;;336.80;94.77;;;;;;;;;;5000382;28;20676;-60
2023/09/12 04:56:16;;;;;;;311.90;95.72;;;;;;;;;;4999226;28;20276;-60
2023/09/12 04:58:42;;;;;;;348.02;97.93;;;;;;;;;;4998155;28;20014;-60
2023/09/12 05:01:07;;;;;;;471.67;105.90;;;;;;;;;;4995884;28;20053;-58
2023/09/12 05:03:33;;;;;;;373.97;101.10;;;;;;;;;;5002116;28;20427;-59
2023/09/12 05:05:58;;;;;;;514.00;109.82;;;;;;;;;;4997089;28;20334;-58
2023/09/12 05:08:24;;;;;;;376.58;103.97;;;;;;;;;;5001869;28;20018;-60
2023/09/12 05:10:49;;;;;;;338.13;101.70;;;;;;;;;;4996412;28;20133;-60
2023/09/12 05:13:15;;;;;;;333.10;102.72;;;;;;;;;;4996377;28;20031;-59
2023/09/12 05:15:40;;;;;;;382.58;102.45;;;;;;;;;;4999108;28;20081;-59
2023/09/12 05:18:06;;;;;;;504.02;110.28;;;;;;;;;;4999254;28;20018;-59
2023/09/12 05:20:32;;;;;;;383.65;104.63;;;;;;;;;;4995094;28;20031;-60
2023/09/12 05:22:57;;;;;;;510.73;113.22;;;;;;;;;;4995951;28;20018;-59
2023/09/12 05:25:22;;;;;;;418.33;109.18;;;;;;;;;;4995789;28;20052;-58
2023/09/12 05:27:47;;;;;;;373.00;107.37;;;;;;;;;;4995604;28;20025;-59
2023/09/12 05:30:13;;;;;;;338.07;89.53;;;;;;;;;;4994023;28;20250;-59
2023/09/12 05:32:38;;;;;;;334.00;89.60;;;;;;;;;;4994971;28;20468;-60
2023/09/12 05:35:03;;;;;;;458.15;96.32;;;;;;;;;;4997731;28;20522;-58
2023/09/12 05:37:29;;;;;;;325.85;90.65;;;;;;;;;;4998182;28;20038;-58
2023/09/12 05:39:54;;;;;;;436.40;94.38;;;;;;;;;;4995534;28;20017;-59
2023/09/12 05:42:20;;;;;;;399.23;94.63;;;;;;;;;;4991941;28;20408;-59
2023/09/12 05:44:49;;;;;;;321.80;84.95;;;;;;;;;;4995043;28;20804;-58
2023/09/12 05:47:15;;;;;;;337.83;85.60;;;;;;;;;;4993312;28;20037;-58
2023/09/12 05:49:40;;;;;;;329.08;82.05;;;;;;;;;;4993527;28;20041;-58
2023/09/12 05:52:05;;;;;;;442.07;91.93;;;;;;;;;;4992537;28;20142;-59
2023/09/12 05:54:31;;;;;;;345.25;86.32;;;;;;;;;;4995006;28;20381;-61
2023/09/12 05:56:56;;;;;;;416.55;93.03;;;;;;;;;;4989811;28;20064;-60
2023/09/12 05:59:21;;;;;;;326.30;90.05;;;;;;;;;;4994331;28;20022;-58
2023/09/12 06:01:48;;;;;;;331.77;90.30;;;;;;;;;;4993671;28;20033;-58
2023/09/12 06:04:13;;;;;;;421.80;93.00;;;;;;;;;;4993209;28;20034;-59
2023/09/12 06:06:39;;;;;;;343.20;89.83;;;;;;;;;;4992911;28;20056;-60
2023/09/12 06:09:04;;;;;;;499.00;97.13;;;;;;;;;;4995017;28;20262;-58
2023/09/12 06:11:29;;;;;;;362.53;91.37;;;;;;;;;;4992907;28;20044;-58
2023/09/12 06:13:55;;;;;;;385.10;92.07;;;;;;;;;;4980407;28;20338;-58
2023/09/12 06:16:21;;;;;;;359.07;89.20;;;;;;;;;;4995166;28;20037;-59
2023/09/12 06:18:48;;;;;;;330.13;88.50;;;;;;;;;;4996119;28;20092;-59
2023/09/12 06:21:13;;;;;;;431.52;95.70;;;;;;;;;;4993473;28;20037;-59
2023/09/12 06:23:38;;;;;;;389.63;90.75;;;;;;;;;;4998506;28;20041;-59
2023/09/12 06:26:04;;;;;;;441.10;94.87;;;;;;;;;;4995677;28;20069;-59
2023/09/12 06:28:30;;;;;;;343.43;88.80;;;;;;;;;;4996079;28;20105;-58
2023/09/12 06:30:56;;;;;;;343.05;87.97;;;;;;;;;;4996117;28;20381;-57
2023/09/12 06:33:22;;;;;;;331.63;87.05;;;;;;;;;;4994603;28;20025;-58
2023/09/12 06:35:52;;;;;;;299.38;85.60;;;;;;;;;;4994706;28;20295;-58
2023/09/12 06:38:17;;;;;;;309.98;85.45;;;;;;;;;;4993174;28;20010;-58
2023/09/12 06:40:43;;;;;;;343.15;85.53;;;;;;;;;;4995756;28;20025;-59
2023/09/12 06:43:08;;;;;;;425.02;98.82;;;;;;;;;;4994200;28;20029;-58
2023/09/12 06:45:36;;;;;;;333.08;104.32;;;;;;;;;;4991387;28;20034;-59
2023/09/12 06:48:01;;;;;;;389.33;82.88;;;;;;;;;;4994155;28;20066;-59
2023/09/12 06:50:27;;;;;;;368.95;106.97;;;;;;;;;;4993608;28;20133;-59
2023/09/12 06:52:52;;;;;;;368.93;208.47;;;;;;;;;;4993112;28;20387;-58
2023/09/12 06:55:17;;;;;;;257.70;69.13;;;;;;;;;;4991773;28;21045;-58
2023/09/12 06:57:42;;;;;;;477.00;365.23;;;;;;;;;;4993515;28;20945;-59
2023/09/12 07:00:08;;;;;;;367.33;73.07;;;;;;;;;;4994029;28;20519;-58
2023/09/12 07:02:33;;;;;;;264.90;61.78;;;;;;;;;;4991214;28;20269;-59
2023/09/12 07:04:59;;;;;;;358.20;143.00;;;;;;;;;;4993923;28;20033;-61
2023/09/12 07:07:24;;;;;;;261.07;53.90;;;;;;;;;;4994469;28;20086;-59
2023/09/12 07:09:49;;;;;;;309.00;137.30;;;;;;;;;;4997555;28;20281;-62
2023/09/12 07:12:15;;;;;;;293.27;52.80;;;;;;;;;;4994863;28;20432;-60
2023/09/12 07:14:40;;;;;;;319.63;134.83;;;;;;;;;;4996394;28;20018;-60
2023/09/12 07:17:06;;;;;;;431.20;165.07;;;;;;;;;;4990539;28;20408;-58
2023/09/12 07:19:31;;;;;;;454.52;360.98;;;;;;;;;;4995746;28;20022;-58
2023/09/12 07:21:56;;;;;;;454.63;269.87;;;;;;;;;;4990590;28;20407;-58
2023/09/12 07:24:24;;;;;;;447.58;334.02;;;;;;;;;;4991983;28;20285;-61
2023/09/12 07:26:49;;;;;;;507.63;426.27;;;;;;;;;;4990172;28;20089;-61
2023/09/12 07:29:15;;;;;;;583.10;377.50;;;;;;;;;;4994166;28;20128;-59
2023/09/12 07:31:40;;;;;;;479.00;324.30;;;;;;;;;;4999007;28;20285;-58
2023/09/12 07:34:05;;;;;;;507.60;236.87;;;;;;;;;;4997964;28;20413;-59
2023/09/12 07:36:30;;;;;;;515.90;332.92;;;;;;;;;;4999228;28;20686;-59
2023/09/12 07:38:56;;;;;;;426.83;240.30;;;;;;;;;;4996237;28;20013;-59
2023/09/12 07:41:21;;;;;;;422.40;307.20;;;;;;;;;;4993177;28;20038;-60
2023/09/12 07:43:46;;;;;;;421.90;321.97;;;;;;;;;;4999002;28;20260;-61
2023/09/12 07:46:12;;;;;;;404.57;136.70;;;;;;;;;;4996595;28;20044;-60
2023/09/12 07:48:37;;;;;;;494.42;387.05;;;;;;;;;;4998485;28;20863;-59
2023/09/12 07:51:11;;;;;;;479.30;303.47;;;;;;;;;;4998296;28;20108;-60
2023/09/12 07:53:36;;;;;;;430.67;259.90;;;;;;;;;;5000776;28;20292;-58
2023/09/12 07:56:01;;;;;;;400.70;254.67;;;;;;;;;;4997122;28;20061;-60
2023/09/12 07:58:26;;;;;;;494.93;440.33;;;;;;;;;;5001114;28;20022;-59
2023/09/12 08:00:51;;;;;;;507.47;406.33;;;;;;;;;;4998345;28;20034;-59
2023/09/12 08:03:17;;;;;;;539.20;356.73;;;;;;;;;;4993947;28;20465;-59
2023/09/12 08:05:42;;;;;;;414.20;349.45;;;;;;;;;;4994877;28;20038;-60
2023/09/12 08:08:08;;;;;;;630.63;406.70;;;;;;;;;;4995120;28;20408;-58
2023/09/12 08:10:33;;;;;;;433.13;305.52;;;;;;;;;;4992722;28;20030;-60
2023/09/12 08:12:58;;;;;;;541.03;482.33;;;;;;;;;;4997572;28;20022;-59
2023/09/12 08:15:24;;;;;;;502.30;386.92;;;;;;;;;;4995227;28;20021;-60
2023/09/12 08:17:51;;;;;;;424.70;287.90;;;;;;;;;;4999604;28;20142;-60
2023/09/12 08:20:17;;;;;;;538.03;382.30;;;;;;;;;;4994595;28;20829;-59
2023/09/12 08:22:42;;;;;;;356.75;280.92;;;;;;;;;;4995171;28;20034;-60
2023/09/12 08:25:08;;;;;;;615.30;402.67;;;;;;;;;;4997701;28;20578;-59
2023/09/12 08:27:33;;;;;;;462.15;368.80;;;;;;;;;;5000519;28;20030;-58
2023/09/12 08:29:58;;;;;;;525.90;436.50;;;;;;;;;;4995275;28;20019;-59
2023/09/12 08:32:23;;;;;;;515.80;383.97;;;;;;;;;;4998483;28;20033;-59
2023/09/12 08:34:49;;;;;;;438.13;362.77;;;;;;;;;;5001862;28;20294;-60
2023/09/12 08:37:14;;;;;;;517.37;377.37;;;;;;;;;;4998210;28;20833;-58
2023/09/12 08:39:41;;;;;;;468.83;417.63;;;;;;;;;;4997214;28;20439;-58
2023/09/12 08:42:08;;;;;;;535.72;385.63;;;;;;;;;;4994187;28;20579;-59
2023/09/12 08:44:34;;;;;;;500.00;407.60;;;;;;;;;;4998763;28;20037;-60
2023/09/12 08:46:59;;;;;;;528.57;436.90;;;;;;;;;;4997416;28;20030;-61
2023/09/12 08:49:25;;;;;;;533.95;426.98;;;;;;;;;;4995617;28;20833;-59
2023/09/12 08:51:50;;;;;;;532.22;451.73;;;;;;;;;;4992868;28;20041;-59
2023/09/12 08:54:15;;;;;;;625.53;463.07;;;;;;;;;;4996787;28;20020;-58
2023/09/12 08:56:42;;;;;;;432.30;335.23;;;;;;;;;;4996216;28;20465;-59
2023/09/12 08:59:08;;;;;;;495.33;342.38;;;;;;;;;;4995672;28;20021;-59
2023/09/12 09:01:33;;;;;;;424.40;314.17;;;;;;;;;;4991910;28;20117;-58
2023/09/12 09:04:02;;;;;;;423.13;372.27;;;;;;;;;;4994467;28;20060;-58
2023/09/12 09:06:28;;;;;;;544.88;467.30;;;;;;;;;;4996245;28;20117;-58
2023/09/12 09:08:53;;;;;;;396.48;280.52;;;;;;;;;;4992326;28;20025;-60
2023/09/12 09:11:19;;;;;;;526.63;336.30;;;;;;;;;;4991572;28;20038;-61
2023/09/12 09:13:44;;;;;;;429.63;337.03;;;;;;;;;;4997968;28;20793;-60
2023/09/12 09:16:13;;;;;;;480.05;323.48;;;;;;;;;;4994048;28;20140;-58
2023/09/12 09:18:50;;;;;;;468.35;365.83;;;;;;;;;;4997501;28;20026;-59
2023/09/12 09:21:19;;;;;;;482.23;310.38;;;;;;;;;;4991482;28;20034;-59
2023/09/12 09:23:46;;;;;;;380.17;241.57;;;;;;;;;;4998276;28;20022;-60
2023/09/12 09:26:11;;;;;;;532.13;366.85;;;;;;;;;;4996863;28;20084;-59
2023/09/12 09:28:36;;;;;;;521.60;456.53;;;;;;;;;;4995022;28;20025;-60
2023/09/12 09:31:04;;;;;;;481.90;398.33;;;;;;;;;;4994117;28;20038;-58
2023/09/12 09:33:34;;;;;;;406.92;293.35;;;;;;;;;;4995481;28;20027;-59
2023/09/12 09:36:04;;;;;;;426.50;285.03;;;;;;;;;;4994468;28;20055;-61
2023/09/12 09:38:29;;;;;;;450.95;323.75;;;;;;;;;;4994804;28;20041;-60
2023/09/12 09:40:55;;;;;;;409.80;299.75;;;;;;;;;;4995416;28;20030;-59
2023/09/12 09:43:21;;;;;;;424.48;283.20;;;;;;;;;;4993786;28;20009;-60
2023/09/12 09:45:46;;;;;;;443.90;348.55;;;;;;;;;;4995476;28;20033;-59
2023/09/12 09:48:18;;;;;;;588.17;403.23;;;;;;;;;;4995570;28;20048;-58
2023/09/12 09:50:43;;;;;;;391.50;313.17;;;;;;;;;;4977923;28;20660;-60
2023/09/12 09:53:10;;;;;;;440.00;341.07;;;;;;;;;;4992114;28;20513;-60
2023/09/12 09:55:35;;;;;;;495.55;391.25;;;;;;;;;;4992112;28;20284;-59
2023/09/12 09:58:00;;;;;;;406.60;322.98;;;;;;;;;;4994526;28;20089;-62
2023/09/12 10:00:27;;;;;;;640.33;319.87;;;;;;;;;;4990095;28;20129;-60
2023/09/12 10:02:52;;;;;;;409.77;339.35;;;;;;;;;;4992514;28;20033;-59
2023/09/12 10:05:18;;;;;;;464.40;287.25;;;;;;;;;;4993251;28;20024;-59
2023/09/12 10:07:45;;;;;;;444.27;362.67;;;;;;;;;;4995637;28;20475;-60
2023/09/12 10:10:11;;;;;;;422.45;281.85;;;;;;;;;;4995844;28;20029;-60
2023/09/12 10:12:41;;;;;;;502.17;365.10;;;;;;;;;;4994187;28;20034;-58
2023/09/12 10:15:07;;;;;;;475.00;362.20;;;;;;;;;;4995137;28;20024;-61
2023/09/12 10:17:36;;;;;;;527.00;433.67;;;;;;;;;;4993652;28;20033;-59
2023/09/12 10:20:04;;;;;;;447.52;317.70;;;;;;;;;;5000412;28;20496;-60
2023/09/12 10:22:36;;;;;;;555.35;447.25;;;;;;;;;;4994628;28;20041;-60
2023/09/12 10:25:01;;;;;;;438.98;371.38;;;;;;;;;;4995912;28;20022;-60
2023/09/12 10:27:27;;;;;;;522.90;277.35;;;;;;;;;;4991688;28;20033;-59
2023/09/12 10:29:53;;;;;;;417.52;300.95;;;;;;;;;;4997116;28;20037;-59
2023/09/12 10:32:19;;;;;;;585.42;372.92;;;;;;;;;;4994226;28;20034;-59
2023/09/12 10:34:47;;;;;;;401.38;292.92;;;;;;;;;;4992543;28;20522;-59
2023/09/12 10:37:14;;;;;;;423.67;289.17;;;;;;;;;;4992732;28;20485;-58
2023/09/12 10:39:40;;;;;;;516.00;430.58;;;;;;;;;;4994849;28;20099;-61
2023/09/12 10:42:05;;;;;;;451.27;369.15;;;;;;;;;;4994435;28;20034;-59
2023/09/12 10:44:31;;;;;;;447.92;358.13;;;;;;;;;;4992305;28;20034;-60
2023/09/12 10:46:57;;;;;;;443.95;316.02;;;;;;;;;;4997144;28;20697;-58
2023/09/12 10:49:23;;;;;;;563.03;374.58;;;;;;;;;;4991917;28;20043;-57
2023/09/12 10:51:49;;;;;;;447.45;372.75;;;;;;;;;;4992269;28;20041;-60
2023/09/12 10:54:16;;;;;;;474.98;363.60;;;;;;;;;;4990746;28;20022;-61
2023/09/12 10:56:41;;;;;;;304.10;171.98;;;;;;;;;;4994847;28;20776;-58
2023/09/12 10:59:07;;;;;;;477.77;379.83;;;;;;;;;;4994651;28;20151;-59
2023/09/12 11:01:36;;;;;;;393.52;257.15;;;;;;;;;;4990002;28;20057;-58
2023/09/12 11:04:20;;;;;;;425.30;280.45;;;;;;;;;;4992631;28;20038;-59
2023/09/12 11:06:49;;;;;;;550.78;459.88;;;;;;;;;;4990278;28;20049;-61
2023/09/12 11:09:16;;;;;;;457.38;312.98;;;;;;;;;;4991455;28;20075;-58
2023/09/12 11:11:42;;;;;;;464.58;401.65;;;;;;;;;;4991998;28;20125;-58
2023/09/12 11:14:07;;;;;;;522.63;409.27;;;;;;;;;;4991040;28;20104;-61
2023/09/12 11:16:33;;;;;;;443.00;382.73;;;;;;;;;;4993034;28;20037;-61
2023/09/12 11:19:14;;;;;;;420.90;321.85;;;;;;;;;;4994412;28;20064;-59
2023/09/12 11:21:40;;;;;;;473.83;410.88;;;;;;;;;;4995063;28;20541;-59
2023/09/12 11:24:05;;;;;;;422.08;338.40;;;;;;;;;;4994316;28;20026;-59
2023/09/12 11:26:31;;;;;;;515.03;158.77;;;;;;;;;;4992328;28;20536;-60
2023/09/12 11:28:56;;;;;;;494.73;405.92;;;;;;;;;;4995519;28;20025;-58
2023/09/12 11:31:27;;;;;;;534.15;340.92;;;;;;;;;;4993973;28;20409;-60
2023/09/12 11:33:53;;;;;;;440.27;370.70;;;;;;;;;;4993531;28;20026;-60
2023/09/12 11:36:19;;;;;;;691.42;466.88;;;;;;;;;;4992483;28;20037;-58
2023/09/12 11:38:49;;;;;;;470.83;368.23;;;;;;;;;;4993795;28;20021;-58
2023/09/12 11:41:14;;;;;;;459.67;373.60;;;;;;;;;;4990192;28;20091;-60
2023/09/12 11:43:40;;;;;;;443.48;315.42;;;;;;;;;;4994743;28;20026;-60
2023/09/12 11:46:06;;;;;;;625.55;541.30;;;;;;;;;;4996650;28;20079;-60
2023/09/12 11:48:31;;;;;;;537.33;285.42;;;;;;;;;;4992617;28;20019;-59
2023/09/12 11:50:57;;;;;;;367.35;257.92;;;;;;;;;;4990526;28;20065;-59
2023/09/12 11:53:25;;;;;;;583.67;426.75;;;;;;;;;;4994933;28;20583;-60
2023/09/12 11:55:52;;;;;;;533.45;374.10;;;;;;;;;;4997605;28;20056;-59
2023/09/12 11:58:18;;;;;;;472.77;300.05;;;;;;;;;;4992508;28;20510;-59
2023/09/12 12:00:53;;;;;;;436.48;292.15;;;;;;;;;;4997077;28;20112;-59
2023/09/12 12:03:22;;;;;;;486.10;330.88;;;;;;;;;;4992188;28;20113;-59
2023/09/12 12:05:47;;;;;;;419.90;300.20;;;;;;;;;;4993180;28;20030;-59
2023/09/12 12:08:13;;;;;;;440.05;292.65;;;;;;;;;;4994313;28;20030;-59
2023/09/12 12:10:39;;;;;;;423.05;330.73;;;;;;;;;;4991082;28;20045;-60
2023/09/12 12:13:05;;;;;;;432.70;298.80;;;;;;;;;;4992154;28;20029;-58
2023/09/12 12:15:30;;;;;;;574.70;321.85;;;;;;;;;;4991864;28;20030;-60
2023/09/12 12:17:56;;;;;;;389.40;280.52;;;;;;;;;;4998166;28;20022;-58
2023/09/12 12:20:22;;;;;;;549.40;308.10;;;;;;;;;;4994604;28;20034;-59
2023/09/12 12:22:47;;;;;;;415.48;338.13;;;;;;;;;;4993255;28;20022;-58
2023/09/12 12:25:14;;;;;;;416.67;285.27;;;;;;;;;;4993965;28;20408;-60
2023/09/12 12:27:40;;;;;;;315.35;254.18;;;;;;;;;;4997761;28;20407;-59
2023/09/12 12:30:07;;;;;;;456.23;329.60;;;;;;;;;;4995647;28;20480;-58
2023/09/12 12:32:32;;;;;;;613.83;278.83;;;;;;;;;;4998064;28;20031;-60
2023/09/12 12:34:57;;;;;;;419.60;328.60;;;;;;;;;;4997325;28;20024;-58
2023/09/12 12:37:30;;;;;;;614.10;337.02;;;;;;;;;;4996815;28;20346;-59
2023/09/12 12:39:55;;;;;;;458.75;355.05;;;;;;;;;;4995412;28;20026;-59
2023/09/12 12:42:23;;;;;;;484.25;257.60;;;;;;;;;;4988631;28;20425;-57
2023/09/12 12:44:52;;;;;;;387.60;240.57;;;;;;;;;;4995591;28;20017;-58
2023/09/12 12:47:17;;;;;;;392.58;289.35;;;;;;;;;;4991640;28;20056;-59
2023/09/12 12:49:43;;;;;;;414.33;280.73;;;;;;;;;;4994575;28;20026;-59
2023/09/12 12:52:11;;;;;;;380.40;258.70;;;;;;;;;;4996355;28;20499;-59
2023/09/12 12:54:36;;;;;;;504.30;271.08;;;;;;;;;;4994799;28;20030;-59
2023/09/12 12:57:02;;;;;;;402.47;311.33;;;;;;;;;;4994457;28;20085;-60
2023/09/12 12:59:29;;;;;;;620.00;367.05;;;;;;;;;;4993826;28;20018;-62
2023/09/12 13:01:55;;;;;;;548.10;431.17;;;;;;;;;;4994277;28;20065;-61
2023/09/12 13:04:20;;;;;;;478.25;349.77;;;;;;;;;;4994351;28;20030;-61
2023/09/12 13:06:46;;;;;;;420.88;287.70;;;;;;;;;;4993495;28;20044;-61
2023/09/12 13:09:11;;;;;;;419.57;303.10;;;;;;;;;;4996566;28;20635;-57
2023/09/12 13:11:37;;;;;;;496.92;246.95;;;;;;;;;;4998029;28;20033;-60
2023/09/12 13:14:09;;;;;;;464.48;378.13;;;;;;;;;;4996092;28;20019;-60
2023/09/12 13:16:34;;;;;;;604.17;310.55;;;;;;;;;;4990898;28;20034;-58
2023/09/12 13:18:59;;;;;;;441.55;357.50;;;;;;;;;;4995620;28;20021;-58
2023/09/12 13:21:25;;;;;;;563.73;392.77;;;;;;;;;;4994385;28;20041;-59
2023/09/12 13:23:50;;;;;;;448.17;309.77;;;;;;;;;;4995667;28;20468;-58
2023/09/12 13:26:15;;;;;;;380.23;266.97;;;;;;;;;;4995835;28;20122;-59
2023/09/12 13:28:40;;;;;;;395.37;307.23;;;;;;;;;;4996355;28;20273;-58
2023/09/12 13:31:06;;;;;;;434.20;291.08;;;;;;;;;;4995503;28;20364;-59
2023/09/12 13:33:32;;;;;;;612.03;411.52;;;;;;;;;;4995068;28;20028;-58
2023/09/12 13:35:57;;;;;;;401.63;309.30;;;;;;;;;;4996576;28;20041;-57
2023/09/12 13:38:23;;;;;;;486.47;339.80;;;;;;;;;;4996069;28;20578;-59
2023/09/12 13:40:48;;;;;;;509.67;431.38;;;;;;;;;;4997064;28;20033;-58
2023/09/12 13:43:14;;;;;;;421.77;268.90;;;;;;;;;;4994583;28;20022;-57
2023/09/12 13:45:39;;;;;;;530.83;292.20;;;;;;;;;;4992820;28;20029;-59
2023/09/12 13:48:05;;;;;;;439.83;285.37;;;;;;;;;;4994999;28;20017;-58